EWG92K EDDL-LEPA
Flight info
| Callsign | EWG92K |
|---|---|
| Flight time | N/A |
| Altitude | 24000 |
| Route | MODRU7Z MODRU Z283 LNO/N0447F330 Z283 SOPOK DCT ROUSY DCT GTQ DCT POGOL DCT LASAT/N0446F350 DCT MOROK DCT GILIR DCT GEVEA DCT INCUS DCT BALSI DCT RETNO DCT TUPOX DCT MTG DCT DIVKO DCT VATIR DCT PIVUS DCT BODEQ DCT VERSO DCT LUNIK |
| Aircraft | A321/M-SDE3FGHIRWY/LB1 |
Departure
| Time | 2026-04-30 14:44 |
|---|---|
| Airport | Düsseldorf Airport (EDDL) |
Arrival
| Time | N/A |
|---|---|
| Airport | Palma de Mallorca Airport (LEPA) |
| Time | Latitude | Longitude | Altitude | Speed | Heading |
|---|---|---|---|---|---|
| 2026-04-30 13:46 | 51.27942 | 6.76186 | 137 ft | 0 kts | 91° |
| 2026-04-30 13:46 | 51.27942 | 6.76187 | 137 ft | 0 kts | 91° |
| 2026-04-30 13:55 | 51.27942 | 6.76186 | 137 ft | 0 kts | 91° |
| 2026-04-30 14:34 | 51.27942 | 6.76174 | 137 ft | 3 kts | 91° |
| 2026-04-30 14:34 | 51.27942 | 6.76145 | 137 ft | 3 kts | 91° |
| 2026-04-30 14:34 | 51.27943 | 6.76117 | 137 ft | 3 kts | 91° |
| 2026-04-30 14:34 | 51.27943 | 6.76090 | 137 ft | 2 kts | 99° |
| 2026-04-30 14:35 | 51.27935 | 6.76051 | 137 ft | 3 kts | 31° |
| 2026-04-30 14:35 | 51.27929 | 6.76045 | 137 ft | 0 kts | 10° |
| 2026-04-30 14:40 | 51.27937 | 6.76047 | 137 ft | 5 kts | 9° |
| 2026-04-30 14:40 | 51.27990 | 6.76048 | 137 ft | 9 kts | 0° |
| 2026-04-30 14:40 | 51.28051 | 6.76049 | 137 ft | 9 kts | 0° |
| 2026-04-30 14:40 | 51.28104 | 6.76000 | 137 ft | 10 kts | 284° |
| 2026-04-30 14:41 | 51.28073 | 6.75902 | 137 ft | 11 kts | 234° |
| 2026-04-30 14:41 | 51.28028 | 6.75804 | 136 ft | 11 kts | 234° |
| 2026-04-30 14:41 | 51.27977 | 6.75702 | 136 ft | 12 kts | 229° |
| 2026-04-30 14:41 | 51.27919 | 6.75582 | 136 ft | 17 kts | 232° |
| 2026-04-30 14:42 | 51.27855 | 6.75447 | 136 ft | 11 kts | 236° |
| 2026-04-30 14:42 | 51.27862 | 6.75356 | 136 ft | 10 kts | 312° |
| 2026-04-30 14:42 | 51.27927 | 6.75284 | 132 ft | 14 kts | 332° |
| 2026-04-30 14:42 | 51.27987 | 6.75273 | 129 ft | 9 kts | 27° |
| 2026-04-30 14:43 | 51.28003 | 6.75297 | 126 ft | 0 kts | 50° |
| 2026-04-30 14:43 | 51.28004 | 6.75298 | 126 ft | 0 kts | 50° |
| 2026-04-30 14:43 | 51.28132 | 6.75572 | 132 ft | 68 kts | 53° |
| 2026-04-30 14:43 | 51.28557 | 6.76449 | 132 ft | 129 kts | 54° |
| 2026-04-30 14:44 | 51.29190 | 6.77765 | 367 ft | 150 kts | 56° |
| 2026-04-30 14:44 | 51.29828 | 6.79056 | 1037 ft | 148 kts | 56° |
| 2026-04-30 14:44 | 51.30472 | 6.80396 | 1405 ft | 161 kts | 56° |
| 2026-04-30 14:44 | 51.31184 | 6.81906 | 1538 ft | 179 kts | 58° |
| 2026-04-30 14:45 | 51.31439 | 6.82455 | 1641 ft | 183 kts | 58° |